sensor_id;sensor_type;location;lat;lon;timestamp;P1;durP1;ratioP1;P2;durP2;ratioP2
85475;SDS011;75880;41.476;22.164;2024-02-04T00:01:22;10.57;;;4.97;;
85475;SDS011;75880;41.476;22.164;2024-02-04T00:03:48;11.52;;;5.32;;
85475;SDS011;75880;41.476;22.164;2024-02-04T00:06:14;10.70;;;5.38;;
85475;SDS011;75880;41.476;22.164;2024-02-04T00:08:40;14.63;;;6.95;;
85475;SDS011;75880;41.476;22.164;2024-02-04T00:11:05;12.98;;;6.80;;
85475;SDS011;75880;41.476;22.164;2024-02-04T00:13:33;7.68;;;4.60;;
85475;SDS011;75880;41.476;22.164;2024-02-04T00:15:59;14.02;;;6.35;;
85475;SDS011;75880;41.476;22.164;2024-02-04T00:18:25;12.00;;;5.03;;
85475;SDS011;75880;41.476;22.164;2024-02-04T00:20:51;12.23;;;5.03;;
85475;SDS011;75880;41.476;22.164;2024-02-04T00:23:17;11.57;;;5.88;;
85475;SDS011;75880;41.476;22.164;2024-02-04T00:25:42;12.88;;;6.47;;
85475;SDS011;75880;41.476;22.164;2024-02-04T00:28:08;20.63;;;6.43;;
85475;SDS011;75880;41.476;22.164;2024-02-04T00:30:37;12.40;;;5.50;;
85475;SDS011;75880;41.476;22.164;2024-02-04T00:33:03;14.18;;;6.53;;
85475;SDS011;75880;41.476;22.164;2024-02-04T00:35:29;18.02;;;6.88;;
85475;SDS011;75880;41.476;22.164;2024-02-04T00:37:56;17.67;;;6.85;;
85475;SDS011;75880;41.476;22.164;2024-02-04T00:40:22;15.05;;;7.22;;
85475;SDS011;75880;41.476;22.164;2024-02-04T00:42:48;13.57;;;6.70;;
85475;SDS011;75880;41.476;22.164;2024-02-04T00:45:14;17.25;;;7.20;;
85475;SDS011;75880;41.476;22.164;2024-02-04T00:47:39;15.13;;;6.88;;
85475;SDS011;75880;41.476;22.164;2024-02-04T00:50:05;19.92;;;8.15;;
85475;SDS011;75880;41.476;22.164;2024-02-04T00:52:32;15.45;;;7.10;;
85475;SDS011;75880;41.476;22.164;2024-02-04T00:54:57;14.93;;;7.15;;
85475;SDS011;75880;41.476;22.164;2024-02-04T00:57:23;16.73;;;7.22;;
85475;SDS011;75880;41.476;22.164;2024-02-04T00:59:49;14.65;;;6.15;;
85475;SDS011;75880;41.476;22.164;2024-02-04T01:02:15;13.10;;;5.25;;
85475;SDS011;75880;41.476;22.164;2024-02-04T01:04:41;11.20;;;5.40;;
85475;SDS011;75880;41.476;22.164;2024-02-04T01:07:07;13.50;;;4.88;;
85475;SDS011;75880;41.476;22.164;2024-02-04T01:09:32;14.43;;;6.45;;
85475;SDS011;75880;41.476;22.164;2024-02-04T01:11:58;12.85;;;5.45;;
85475;SDS011;75880;41.476;22.164;2024-02-04T01:14:24;13.90;;;5.68;;
85475;SDS011;75880;41.476;22.164;2024-02-04T01:16:49;17.77;;;6.30;;
85475;SDS011;75880;41.476;22.164;2024-02-04T01:19:15;10.90;;;5.72;;
85475;SDS011;75880;41.476;22.164;2024-02-04T01:21:41;11.27;;;6.07;;
85475;SDS011;75880;41.476;22.164;2024-02-04T01:24:06;14.48;;;6.32;;
85475;SDS011;75880;41.476;22.164;2024-02-04T01:26:35;11.02;;;5.38;;
85475;SDS011;75880;41.476;22.164;2024-02-04T01:29:01;13.55;;;6.03;;
85475;SDS011;75880;41.476;22.164;2024-02-04T01:31:27;11.95;;;5.40;;
85475;SDS011;75880;41.476;22.164;2024-02-04T01:33:52;16.70;;;5.93;;
85475;SDS011;75880;41.476;22.164;2024-02-04T01:36:18;11.27;;;5.60;;
85475;SDS011;75880;41.476;22.164;2024-02-04T01:38:44;17.73;;;7.25;;
85475;SDS011;75880;41.476;22.164;2024-02-04T01:41:09;13.50;;;7.25;;
85475;SDS011;75880;41.476;22.164;2024-02-04T01:43:35;13.60;;;6.25;;
85475;SDS011;75880;41.476;22.164;2024-02-04T01:46:01;17.42;;;7.85;;
85475;SDS011;75880;41.476;22.164;2024-02-04T01:48:27;16.40;;;8.43;;
85475;SDS011;75880;41.476;22.164;2024-02-04T01:50:53;17.70;;;7.72;;
85475;SDS011;75880;41.476;22.164;2024-02-04T01:53:23;16.15;;;7.07;;
85475;SDS011;75880;41.476;22.164;2024-02-04T01:55:53;13.85;;;6.95;;
85475;SDS011;75880;41.476;22.164;2024-02-04T01:58:20;11.85;;;6.05;;
85475;SDS011;75880;41.476;22.164;2024-02-04T02:00:46;15.15;;;6.15;;
85475;SDS011;75880;41.476;22.164;2024-02-04T02:03:14;14.35;;;6.57;;
85475;SDS011;75880;41.476;22.164;2024-02-04T02:05:42;10.50;;;5.25;;
85475;SDS011;75880;41.476;22.164;2024-02-04T02:08:08;16.00;;;6.63;;
85475;SDS011;75880;41.476;22.164;2024-02-04T02:10:35;20.20;;;8.55;;
85475;SDS011;75880;41.476;22.164;2024-02-04T02:13:04;14.40;;;8.15;;
85475;SDS011;75880;41.476;22.164;2024-02-04T02:15:40;20.02;;;9.55;;
85475;SDS011;75880;41.476;22.164;2024-02-04T02:23:34;21.88;;;9.95;;
85475;SDS011;75880;41.476;22.164;2024-02-04T02:26:05;22.30;;;10.38;;
85475;SDS011;75880;41.476;22.164;2024-02-04T02:28:31;23.13;;;10.60;;
85475;SDS011;75880;41.476;22.164;2024-02-04T02:30:57;24.02;;;11.90;;
85475;SDS011;75880;41.476;22.164;2024-02-04T02:33:23;19.13;;;10.40;;
85475;SDS011;75880;41.476;22.164;2024-02-04T02:35:50;18.15;;;8.57;;
85475;SDS011;75880;41.476;22.164;2024-02-04T02:38:25;25.75;;;9.90;;
85475;SDS011;75880;41.476;22.164;2024-02-04T02:41:01;19.30;;;8.60;;
85475;SDS011;75880;41.476;22.164;2024-02-04T02:43:29;17.90;;;8.32;;
85475;SDS011;75880;41.476;22.164;2024-02-04T02:45:56;15.45;;;7.82;;
85475;SDS011;75880;41.476;22.164;2024-02-04T02:50:47;18.38;;;8.73;;
85475;SDS011;75880;41.476;22.164;2024-02-04T02:53:13;17.77;;;8.50;;
85475;SDS011;75880;41.476;22.164;2024-02-04T02:55:38;15.20;;;7.22;;
85475;SDS011;75880;41.476;22.164;2024-02-04T02:58:06;18.15;;;8.60;;
85475;SDS011;75880;41.476;22.164;2024-02-04T03:00:32;12.52;;;6.65;;
85475;SDS011;75880;41.476;22.164;2024-02-04T03:02:58;12.75;;;6.78;;
85475;SDS011;75880;41.476;22.164;2024-02-04T03:07:50;16.73;;;7.85;;
85475;SDS011;75880;41.476;22.164;2024-02-04T03:10:15;15.45;;;7.07;;
85475;SDS011;75880;41.476;22.164;2024-02-04T03:12:41;37.70;;;13.73;;
85475;SDS011;75880;41.476;22.164;2024-02-04T03:15:07;28.63;;;12.30;;
85475;SDS011;75880;41.476;22.164;2024-02-04T03:19:58;45.67;;;16.15;;
85475;SDS011;75880;41.476;22.164;2024-02-04T03:22:24;57.08;;;21.60;;
85475;SDS011;75880;41.476;22.164;2024-02-04T03:24:51;43.78;;;15.68;;
85475;SDS011;75880;41.476;22.164;2024-02-04T03:27:17;30.30;;;12.68;;
85475;SDS011;75880;41.476;22.164;2024-02-04T03:29:43;26.45;;;11.93;;
85475;SDS011;75880;41.476;22.164;2024-02-04T03:32:10;34.83;;;12.68;;
85475;SDS011;75880;41.476;22.164;2024-02-04T03:34:36;34.05;;;13.68;;
85475;SDS011;75880;41.476;22.164;2024-02-04T03:37:02;23.35;;;10.70;;
85475;SDS011;75880;41.476;22.164;2024-02-04T03:39:28;25.65;;;13.10;;
85475;SDS011;75880;41.476;22.164;2024-02-04T03:41:54;36.42;;;15.48;;
85475;SDS011;75880;41.476;22.164;2024-02-04T03:44:19;59.47;;;21.48;;
85475;SDS011;75880;41.476;22.164;2024-02-04T03:46:48;30.52;;;14.40;;
85475;SDS011;75880;41.476;22.164;2024-02-04T03:49:15;30.17;;;12.10;;
85475;SDS011;75880;41.476;22.164;2024-02-04T03:51:41;23.08;;;12.50;;
85475;SDS011;75880;41.476;22.164;2024-02-04T03:54:07;24.92;;;12.88;;
85475;SDS011;75880;41.476;22.164;2024-02-04T03:56:32;25.55;;;12.38;;
85475;SDS011;75880;41.476;22.164;2024-02-04T03:58:58;27.27;;;12.98;;
85475;SDS011;75880;41.476;22.164;2024-02-04T04:01:24;31.33;;;14.05;;
85475;SDS011;75880;41.476;22.164;2024-02-04T04:03:50;57.58;;;24.70;;
85475;SDS011;75880;41.476;22.164;2024-02-04T04:06:15;46.53;;;21.35;;
85475;SDS011;75880;41.476;22.164;2024-02-04T04:08:41;44.35;;;19.73;;
85475;SDS011;75880;41.476;22.164;2024-02-04T04:11:08;34.05;;;16.02;;
85475;SDS011;75880;41.476;22.164;2024-02-04T04:13:34;31.77;;;16.55;;
85475;SDS011;75880;41.476;22.164;2024-02-04T04:16:01;38.60;;;16.50;;
85475;SDS011;75880;41.476;22.164;2024-02-04T04:18:27;33.85;;;15.52;;
85475;SDS011;75880;41.476;22.164;2024-02-04T04:20:52;36.65;;;16.48;;
85475;SDS011;75880;41.476;22.164;2024-02-04T04:23:20;31.02;;;16.73;;
85475;SDS011;75880;41.476;22.164;2024-02-04T04:25:45;38.42;;;17.20;;
85475;SDS011;75880;41.476;22.164;2024-02-04T04:28:11;35.10;;;14.90;;
85475;SDS011;75880;41.476;22.164;2024-02-04T04:30:36;30.17;;;14.38;;
85475;SDS011;75880;41.476;22.164;2024-02-04T04:33:02;36.88;;;15.63;;
85475;SDS011;75880;41.476;22.164;2024-02-04T04:35:28;30.35;;;12.23;;
85475;SDS011;75880;41.476;22.164;2024-02-04T04:37:53;28.98;;;13.57;;
85475;SDS011;75880;41.476;22.164;2024-02-04T04:40:19;26.58;;;11.43;;
85475;SDS011;75880;41.476;22.164;2024-02-04T04:42:45;26.42;;;13.43;;
85475;SDS011;75880;41.476;22.164;2024-02-04T04:45:10;32.05;;;13.00;;
85475;SDS011;75880;41.476;22.164;2024-02-04T04:47:36;26.52;;;13.35;;
85475;SDS011;75880;41.476;22.164;2024-02-04T04:52:29;22.50;;;10.85;;
85475;SDS011;75880;41.476;22.164;2024-02-04T04:54:55;33.47;;;12.55;;
85475;SDS011;75880;41.476;22.164;2024-02-04T04:57:21;30.02;;;13.43;;
85475;SDS011;75880;41.476;22.164;2024-02-04T05:02:12;29.65;;;13.35;;
85475;SDS011;75880;41.476;22.164;2024-02-04T05:04:38;32.30;;;14.85;;
85475;SDS011;75880;41.476;22.164;2024-02-04T05:07:09;35.50;;;15.85;;
85475;SDS011;75880;41.476;22.164;2024-02-04T05:12:00;35.25;;;15.57;;
85475;SDS011;75880;41.476;22.164;2024-02-04T05:14:27;39.53;;;16.08;;
85475;SDS011;75880;41.476;22.164;2024-02-04T05:16:53;32.63;;;14.15;;
85475;SDS011;75880;41.476;22.164;2024-02-04T05:19:18;30.40;;;13.40;;
85475;SDS011;75880;41.476;22.164;2024-02-04T05:24:10;30.67;;;12.32;;
85475;SDS011;75880;41.476;22.164;2024-02-04T05:26:35;29.92;;;10.85;;
85475;SDS011;75880;41.476;22.164;2024-02-04T05:29:01;28.00;;;12.57;;
85475;SDS011;75880;41.476;22.164;2024-02-04T05:31:27;26.48;;;10.82;;
85475;SDS011;75880;41.476;22.164;2024-02-04T05:33:53;29.83;;;12.13;;
85475;SDS011;75880;41.476;22.164;2024-02-04T05:36:18;31.40;;;13.43;;
85475;SDS011;75880;41.476;22.164;2024-02-04T05:41:11;45.08;;;16.67;;
85475;SDS011;75880;41.476;22.164;2024-02-04T05:43:36;44.70;;;18.55;;
85475;SDS011;75880;41.476;22.164;2024-02-04T05:46:02;33.65;;;14.88;;
85475;SDS011;75880;41.476;22.164;2024-02-04T05:48:28;42.60;;;17.85;;
85475;SDS011;75880;41.476;22.164;2024-02-04T05:50:54;39.35;;;17.38;;
85475;SDS011;75880;41.476;22.164;2024-02-04T05:53:19;48.42;;;18.02;;
85475;SDS011;75880;41.476;22.164;2024-02-04T05:55:46;77.10;;;33.30;;
85475;SDS011;75880;41.476;22.164;2024-02-04T05:58:11;75.70;;;31.67;;
85475;SDS011;75880;41.476;22.164;2024-02-04T06:00:39;55.45;;;25.30;;
85475;SDS011;75880;41.476;22.164;2024-02-04T06:03:06;46.78;;;20.85;;
85475;SDS011;75880;41.476;22.164;2024-02-04T06:05:32;33.47;;;15.85;;
85475;SDS011;75880;41.476;22.164;2024-02-04T06:07:58;38.53;;;16.45;;
85475;SDS011;75880;41.476;22.164;2024-02-04T06:10:24;37.35;;;17.80;;
85475;SDS011;75880;41.476;22.164;2024-02-04T06:12:49;70.45;;;30.25;;
85475;SDS011;75880;41.476;22.164;2024-02-04T06:15:15;43.05;;;19.77;;
85475;SDS011;75880;41.476;22.164;2024-02-04T06:17:42;54.58;;;24.15;;
85475;SDS011;75880;41.476;22.164;2024-02-04T06:20:08;41.08;;;20.95;;
85475;SDS011;75880;41.476;22.164;2024-02-04T06:22:34;30.83;;;15.60;;
85475;SDS011;75880;41.476;22.164;2024-02-04T06:25:01;28.27;;;12.77;;
85475;SDS011;75880;41.476;22.164;2024-02-04T06:27:30;23.48;;;12.13;;
85475;SDS011;75880;41.476;22.164;2024-02-04T06:29:57;30.50;;;13.40;;
85475;SDS011;75880;41.476;22.164;2024-02-04T06:34:49;126.15;;;61.40;;
85475;SDS011;75880;41.476;22.164;2024-02-04T06:37:16;121.28;;;60.97;;
85475;SDS011;75880;41.476;22.164;2024-02-04T06:42:08;45.33;;;20.02;;
85475;SDS011;75880;41.476;22.164;2024-02-04T06:44:34;24.70;;;12.35;;
85475;SDS011;75880;41.476;22.164;2024-02-04T06:49:25;26.05;;;12.40;;
85475;SDS011;75880;41.476;22.164;2024-02-04T06:51:51;29.48;;;13.38;;
85475;SDS011;75880;41.476;22.164;2024-02-04T06:54:22;28.70;;;12.90;;
85475;SDS011;75880;41.476;22.164;2024-02-04T06:56:51;45.53;;;18.48;;
85475;SDS011;75880;41.476;22.164;2024-02-04T06:59:19;39.90;;;15.32;;
85475;SDS011;75880;41.476;22.164;2024-02-04T07:04:11;40.00;;;16.25;;
85475;SDS011;75880;41.476;22.164;2024-02-04T07:06:36;40.85;;;17.73;;
85475;SDS011;75880;41.476;22.164;2024-02-04T07:09:02;35.03;;;16.70;;
85475;SDS011;75880;41.476;22.164;2024-02-04T07:11:28;37.25;;;16.75;;
85475;SDS011;75880;41.476;22.164;2024-02-04T07:13:53;35.90;;;16.58;;
85475;SDS011;75880;41.476;22.164;2024-02-04T07:16:24;34.78;;;16.73;;
85475;SDS011;75880;41.476;22.164;2024-02-04T07:18:50;40.03;;;15.75;;
85475;SDS011;75880;41.476;22.164;2024-02-04T07:23:44;37.38;;;15.15;;
85475;SDS011;75880;41.476;22.164;2024-02-04T07:26:10;39.05;;;16.30;;
85475;SDS011;75880;41.476;22.164;2024-02-04T07:31:02;36.95;;;14.52;;
85475;SDS011;75880;41.476;22.164;2024-02-04T07:35:53;32.35;;;14.07;;
85475;SDS011;75880;41.476;22.164;2024-02-04T07:40:44;49.38;;;20.30;;
85475;SDS011;75880;41.476;22.164;2024-02-04T07:43:12;32.80;;;18.35;;
85475;SDS011;75880;41.476;22.164;2024-02-04T07:45:38;36.78;;;16.00;;
85475;SDS011;75880;41.476;22.164;2024-02-04T07:50:29;68.95;;;30.00;;
85475;SDS011;75880;41.476;22.164;2024-02-04T07:52:55;85.97;;;40.63;;
85475;SDS011;75880;41.476;22.164;2024-02-04T07:55:20;311.75;;;90.28;;
85475;SDS011;75880;41.476;22.164;2024-02-04T08:00:12;125.93;;;44.05;;
85475;SDS011;75880;41.476;22.164;2024-02-04T08:05:04;92.00;;;38.10;;
85475;SDS011;75880;41.476;22.164;2024-02-04T08:07:29;43.35;;;23.00;;
85475;SDS011;75880;41.476;22.164;2024-02-04T08:09:55;61.65;;;29.83;;
85475;SDS011;75880;41.476;22.164;2024-02-04T08:12:21;74.00;;;35.00;;
85475;SDS011;75880;41.476;22.164;2024-02-04T08:17:12;47.40;;;22.75;;
85475;SDS011;75880;41.476;22.164;2024-02-04T08:22:03;56.50;;;22.58;;
85475;SDS011;75880;41.476;22.164;2024-02-04T08:26:57;37.65;;;18.27;;
85475;SDS011;75880;41.476;22.164;2024-02-04T08:29:23;39.33;;;18.55;;
85475;SDS011;75880;41.476;22.164;2024-02-04T08:31:49;38.78;;;17.70;;
85475;SDS011;75880;41.476;22.164;2024-02-04T08:34:15;106.80;;;48.45;;
85475;SDS011;75880;41.476;22.164;2024-02-04T08:39:06;60.38;;;27.90;;
85475;SDS011;75880;41.476;22.164;2024-02-04T08:43:57;59.92;;;30.80;;
85475;SDS011;75880;41.476;22.164;2024-02-04T08:48:48;51.15;;;27.35;;
85475;SDS011;75880;41.476;22.164;2024-02-04T08:51:14;47.33;;;22.58;;
85475;SDS011;75880;41.476;22.164;2024-02-04T08:53:41;45.10;;;19.30;;
85475;SDS011;75880;41.476;22.164;2024-02-04T08:56:07;38.58;;;19.25;;
85475;SDS011;75880;41.476;22.164;2024-02-04T08:58:36;44.63;;;21.23;;
85475;SDS011;75880;41.476;22.164;2024-02-04T09:01:03;49.75;;;22.48;;
85475;SDS011;75880;41.476;22.164;2024-02-04T09:03:29;45.17;;;21.25;;
85475;SDS011;75880;41.476;22.164;2024-02-04T09:05:56;41.80;;;20.92;;
85475;SDS011;75880;41.476;22.164;2024-02-04T09:08:22;37.88;;;18.08;;
85475;SDS011;75880;41.476;22.164;2024-02-04T09:10:48;44.05;;;20.67;;
85475;SDS011;75880;41.476;22.164;2024-02-04T09:15:39;37.50;;;18.98;;
85475;SDS011;75880;41.476;22.164;2024-02-04T09:18:04;36.03;;;18.23;;
85475;SDS011;75880;41.476;22.164;2024-02-04T09:20:30;54.13;;;23.13;;
85475;SDS011;75880;41.476;22.164;2024-02-04T09:22:56;47.38;;;22.67;;
85475;SDS011;75880;41.476;22.164;2024-02-04T09:25:21;35.40;;;19.77;;
85475;SDS011;75880;41.476;22.164;2024-02-04T09:27:47;42.25;;;22.13;;
85475;SDS011;75880;41.476;22.164;2024-02-04T09:30:13;46.35;;;21.25;;
85475;SDS011;75880;41.476;22.164;2024-02-04T09:32:38;41.35;;;21.70;;
85475;SDS011;75880;41.476;22.164;2024-02-04T09:35:04;44.47;;;22.63;;
85475;SDS011;75880;41.476;22.164;2024-02-04T09:37:30;46.13;;;21.98;;
85475;SDS011;75880;41.476;22.164;2024-02-04T09:39:55;40.60;;;20.60;;
85475;SDS011;75880;41.476;22.164;2024-02-04T09:42:21;42.22;;;20.90;;
85475;SDS011;75880;41.476;22.164;2024-02-04T09:44:48;45.53;;;22.27;;
85475;SDS011;75880;41.476;22.164;2024-02-04T09:47:14;37.60;;;18.60;;
85475;SDS011;75880;41.476;22.164;2024-02-04T09:49:41;33.92;;;18.38;;
85475;SDS011;75880;41.476;22.164;2024-02-04T09:52:08;28.10;;;15.02;;
85475;SDS011;75880;41.476;22.164;2024-02-04T09:54:34;27.80;;;13.85;;
85475;SDS011;75880;41.476;22.164;2024-02-04T09:57:09;31.27;;;12.65;;
85475;SDS011;75880;41.476;22.164;2024-02-04T09:59:35;24.42;;;12.32;;
85475;SDS011;75880;41.476;22.164;2024-02-04T10:02:01;20.02;;;8.80;;
85475;SDS011;75880;41.476;22.164;2024-02-04T10:04:28;22.27;;;10.13;;
85475;SDS011;75880;41.476;22.164;2024-02-04T10:06:54;26.27;;;9.32;;
85475;SDS011;75880;41.476;22.164;2024-02-04T10:09:20;16.23;;;8.98;;
85475;SDS011;75880;41.476;22.164;2024-02-04T10:11:46;25.83;;;11.75;;
85475;SDS011;75880;41.476;22.164;2024-02-04T10:14:11;36.28;;;15.82;;
85475;SDS011;75880;41.476;22.164;2024-02-04T10:16:37;22.88;;;9.05;;
85475;SDS011;75880;41.476;22.164;2024-02-04T10:19:03;13.80;;;8.05;;
85475;SDS011;75880;41.476;22.164;2024-02-04T10:21:29;21.75;;;11.45;;
85475;SDS011;75880;41.476;22.164;2024-02-04T10:23:55;24.95;;;11.10;;
85475;SDS011;75880;41.476;22.164;2024-02-04T10:26:22;50.10;;;19.17;;
85475;SDS011;75880;41.476;22.164;2024-02-04T10:28:48;13.30;;;7.47;;
85475;SDS011;75880;41.476;22.164;2024-02-04T10:31:14;22.13;;;9.95;;
85475;SDS011;75880;41.476;22.164;2024-02-04T10:33:40;18.60;;;10.32;;
85475;SDS011;75880;41.476;22.164;2024-02-04T10:36:06;16.25;;;8.30;;
85475;SDS011;75880;41.476;22.164;2024-02-04T10:38:32;16.58;;;9.85;;
85475;SDS011;75880;41.476;22.164;2024-02-04T10:41:02;22.63;;;9.65;;
85475;SDS011;75880;41.476;22.164;2024-02-04T10:43:31;21.30;;;10.10;;
85475;SDS011;75880;41.476;22.164;2024-02-04T10:46:00;23.73;;;11.52;;
85475;SDS011;75880;41.476;22.164;2024-02-04T10:48:30;27.25;;;10.60;;
85475;SDS011;75880;41.476;22.164;2024-02-04T10:51:07;16.38;;;9.13;;
85475;SDS011;75880;41.476;22.164;2024-02-04T10:53:43;17.50;;;9.00;;
85475;SDS011;75880;41.476;22.164;2024-02-04T10:56:25;16.95;;;9.48;;
85475;SDS011;75880;41.476;22.164;2024-02-04T10:58:58;14.48;;;8.07;;
85475;SDS011;75880;41.476;22.164;2024-02-04T11:01:27;20.70;;;9.05;;
85475;SDS011;75880;41.476;22.164;2024-02-04T11:03:53;16.20;;;8.65;;
85475;SDS011;75880;41.476;22.164;2024-02-04T11:06:23;22.65;;;9.48;;
85475;SDS011;75880;41.476;22.164;2024-02-04T11:08:52;22.65;;;9.75;;
85475;SDS011;75880;41.476;22.164;2024-02-04T11:11:19;39.20;;;11.57;;
85475;SDS011;75880;41.476;22.164;2024-02-04T11:13:49;19.65;;;9.23;;
85475;SDS011;75880;41.476;22.164;2024-02-04T11:27:24;19.52;;;8.25;;
85475;SDS011;75880;41.476;22.164;2024-02-04T11:29:51;15.57;;;8.45;;
85475;SDS011;75880;41.476;22.164;2024-02-04T11:32:17;14.30;;;7.30;;
85475;SDS011;75880;41.476;22.164;2024-02-04T11:34:44;16.08;;;7.68;;
85475;SDS011;75880;41.476;22.164;2024-02-04T11:37:16;14.30;;;8.15;;
85475;SDS011;75880;41.476;22.164;2024-02-04T11:39:52;17.45;;;8.38;;
85475;SDS011;75880;41.476;22.164;2024-02-04T11:42:22;21.10;;;9.05;;
85475;SDS011;75880;41.476;22.164;2024-02-04T11:44:48;24.67;;;15.48;;
85475;SDS011;75880;41.476;22.164;2024-02-04T11:47:24;12.52;;;7.72;;
85475;SDS011;75880;41.476;22.164;2024-02-04T11:49:57;19.05;;;8.32;;
85475;SDS011;75880;41.476;22.164;2024-02-04T11:52:26;16.58;;;7.78;;
85475;SDS011;75880;41.476;22.164;2024-02-04T11:54:52;19.15;;;9.23;;
85475;SDS011;75880;41.476;22.164;2024-02-04T11:57:19;19.80;;;10.13;;
85475;SDS011;75880;41.476;22.164;2024-02-04T11:59:46;19.38;;;10.40;;
85475;SDS011;75880;41.476;22.164;2024-02-04T12:02:12;18.65;;;8.52;;
85475;SDS011;75880;41.476;22.164;2024-02-04T12:04:41;19.73;;;9.13;;
85475;SDS011;75880;41.476;22.164;2024-02-04T12:07:08;21.30;;;12.00;;
85475;SDS011;75880;41.476;22.164;2024-02-04T12:09:34;19.73;;;10.43;;
85475;SDS011;75880;41.476;22.164;2024-02-04T12:12:01;19.88;;;10.65;;
85475;SDS011;75880;41.476;22.164;2024-02-04T12:14:31;20.60;;;10.07;;
85475;SDS011;75880;41.476;22.164;2024-02-04T12:16:57;22.08;;;10.68;;
85475;SDS011;75880;41.476;22.164;2024-02-04T12:19:23;32.40;;;11.07;;
85475;SDS011;75880;41.476;22.164;2024-02-04T12:21:49;19.45;;;9.43;;
85475;SDS011;75880;41.476;22.164;2024-02-04T12:24:15;17.40;;;9.32;;
85475;SDS011;75880;41.476;22.164;2024-02-04T12:26:41;17.33;;;9.52;;
85475;SDS011;75880;41.476;22.164;2024-02-04T12:29:08;17.75;;;8.73;;
85475;SDS011;75880;41.476;22.164;2024-02-04T12:31:34;22.35;;;9.05;;
85475;SDS011;75880;41.476;22.164;2024-02-04T12:34:00;11.25;;;7.10;;
85475;SDS011;75880;41.476;22.164;2024-02-04T12:36:30;17.63;;;8.90;;
85475;SDS011;75880;41.476;22.164;2024-02-04T12:39:00;19.50;;;9.90;;
85475;SDS011;75880;41.476;22.164;2024-02-04T12:41:26;16.95;;;8.85;;
85475;SDS011;75880;41.476;22.164;2024-02-04T12:43:53;27.65;;;16.25;;
85475;SDS011;75880;41.476;22.164;2024-02-04T12:46:20;53.80;;;28.88;;
85475;SDS011;75880;41.476;22.164;2024-02-04T12:48:50;22.90;;;11.32;;
85475;SDS011;75880;41.476;22.164;2024-02-04T12:51:23;16.88;;;10.02;;
85475;SDS011;75880;41.476;22.164;2024-02-04T12:54:06;21.58;;;10.57;;
85475;SDS011;75880;41.476;22.164;2024-02-04T12:56:49;15.65;;;8.75;;
85475;SDS011;75880;41.476;22.164;2024-02-04T13:01:58;20.30;;;9.05;;
85475;SDS011;75880;41.476;22.164;2024-02-04T13:04:26;51.13;;;15.32;;
85475;SDS011;75880;41.476;22.164;2024-02-04T13:06:52;49.20;;;16.85;;
85475;SDS011;75880;41.476;22.164;2024-02-04T13:09:18;28.55;;;10.55;;
85475;SDS011;75880;41.476;22.164;2024-02-04T13:11:44;40.80;;;13.30;;
85475;SDS011;75880;41.476;22.164;2024-02-04T13:14:10;19.20;;;8.45;;
85475;SDS011;75880;41.476;22.164;2024-02-04T13:16:37;100.20;;;31.85;;
85475;SDS011;75880;41.476;22.164;2024-02-04T13:19:06;71.43;;;25.80;;
85475;SDS011;75880;41.476;22.164;2024-02-04T13:21:32;38.28;;;14.85;;
85475;SDS011;75880;41.476;22.164;2024-02-04T13:23:58;36.58;;;11.57;;
85475;SDS011;75880;41.476;22.164;2024-02-04T13:26:24;36.22;;;11.65;;
85475;SDS011;75880;41.476;22.164;2024-02-04T13:28:49;11.70;;;6.95;;
85475;SDS011;75880;41.476;22.164;2024-02-04T13:31:15;11.73;;;5.78;;
85475;SDS011;75880;41.476;22.164;2024-02-04T13:33:41;11.50;;;6.18;;
85475;SDS011;75880;41.476;22.164;2024-02-04T13:36:07;11.50;;;6.30;;
85475;SDS011;75880;41.476;22.164;2024-02-04T13:38:33;13.00;;;6.57;;
85475;SDS011;75880;41.476;22.164;2024-02-04T13:41:02;14.73;;;6.38;;
85475;SDS011;75880;41.476;22.164;2024-02-04T13:43:31;16.70;;;7.15;;
85475;SDS011;75880;41.476;22.164;2024-02-04T13:45:59;24.95;;;8.65;;
85475;SDS011;75880;41.476;22.164;2024-02-04T13:48:26;24.80;;;12.43;;
85475;SDS011;75880;41.476;22.164;2024-02-04T13:50:52;16.90;;;9.60;;
85475;SDS011;75880;41.476;22.164;2024-02-04T13:53:19;30.10;;;12.68;;
85475;SDS011;75880;41.476;22.164;2024-02-04T13:55:46;43.58;;;14.15;;
85475;SDS011;75880;41.476;22.164;2024-02-04T13:58:12;12.23;;;5.90;;
85475;SDS011;75880;41.476;22.164;2024-02-04T14:00:37;11.05;;;6.13;;
85475;SDS011;75880;41.476;22.164;2024-02-04T14:03:03;21.25;;;10.20;;
85475;SDS011;75880;41.476;22.164;2024-02-04T14:05:29;15.25;;;7.05;;
85475;SDS011;75880;41.476;22.164;2024-02-04T14:07:56;13.80;;;6.93;;
85475;SDS011;75880;41.476;22.164;2024-02-04T14:10:22;16.40;;;6.55;;
85475;SDS011;75880;41.476;22.164;2024-02-04T14:12:48;14.80;;;6.00;;
85475;SDS011;75880;41.476;22.164;2024-02-04T14:15:13;17.45;;;10.48;;
85475;SDS011;75880;41.476;22.164;2024-02-04T14:17:39;16.80;;;9.63;;
85475;SDS011;75880;41.476;22.164;2024-02-04T14:20:06;24.63;;;9.90;;
85475;SDS011;75880;41.476;22.164;2024-02-04T14:22:32;17.55;;;7.18;;
85475;SDS011;75880;41.476;22.164;2024-02-04T14:24:58;32.05;;;12.60;;
85475;SDS011;75880;41.476;22.164;2024-02-04T14:27:25;17.98;;;7.10;;
85475;SDS011;75880;41.476;22.164;2024-02-04T14:29:51;15.27;;;5.65;;
85475;SDS011;75880;41.476;22.164;2024-02-04T14:32:16;17.65;;;6.75;;
85475;SDS011;75880;41.476;22.164;2024-02-04T14:34:43;15.48;;;6.57;;
85475;SDS011;75880;41.476;22.164;2024-02-04T14:37:08;22.70;;;7.43;;
85475;SDS011;75880;41.476;22.164;2024-02-04T14:39:35;20.10;;;7.78;;
85475;SDS011;75880;41.476;22.164;2024-02-04T14:42:01;14.20;;;7.13;;
85475;SDS011;75880;41.476;22.164;2024-02-04T14:44:27;15.77;;;8.18;;
85475;SDS011;75880;41.476;22.164;2024-02-04T14:46:53;20.10;;;10.20;;
85475;SDS011;75880;41.476;22.164;2024-02-04T14:49:18;13.00;;;6.13;;
85475;SDS011;75880;41.476;22.164;2024-02-04T14:51:44;12.10;;;6.53;;
85475;SDS011;75880;41.476;22.164;2024-02-04T14:54:10;15.65;;;8.10;;
85475;SDS011;75880;41.476;22.164;2024-02-04T14:56:39;15.02;;;7.55;;
85475;SDS011;75880;41.476;22.164;2024-02-04T14:59:07;22.25;;;10.07;;
85475;SDS011;75880;41.476;22.164;2024-02-04T15:01:35;17.08;;;6.97;;
85475;SDS011;75880;41.476;22.164;2024-02-04T15:04:01;11.30;;;5.72;;
85475;SDS011;75880;41.476;22.164;2024-02-04T15:06:27;18.52;;;7.93;;
85475;SDS011;75880;41.476;22.164;2024-02-04T15:08:55;18.05;;;8.02;;
85475;SDS011;75880;41.476;22.164;2024-02-04T15:11:21;12.48;;;6.85;;
85475;SDS011;75880;41.476;22.164;2024-02-04T15:13:47;14.52;;;6.68;;
85475;SDS011;75880;41.476;22.164;2024-02-04T15:16:13;14.30;;;8.00;;
85475;SDS011;75880;41.476;22.164;2024-02-04T15:18:39;19.15;;;7.60;;
85475;SDS011;75880;41.476;22.164;2024-02-04T15:21:05;39.72;;;18.20;;
85475;SDS011;75880;41.476;22.164;2024-02-04T15:23:31;121.53;;;57.42;;
85475;SDS011;75880;41.476;22.164;2024-02-04T15:25:58;231.38;;;97.53;;
85475;SDS011;75880;41.476;22.164;2024-02-04T15:28:27;288.58;;;123.68;;
85475;SDS011;75880;41.476;22.164;2024-02-04T15:30:53;217.35;;;95.00;;
85475;SDS011;75880;41.476;22.164;2024-02-04T15:33:19;144.57;;;63.92;;